首页
METAR-TAF:

METAR-TAF

机场 :

Shelby, 北卡罗来纳州, 美国

纬度: 35-15N, 经度: 081-36W, 海拔: 258米

当前天气观测

该预报发布于16分钟前的08:25 UTC
风速8节,风向东转东北
温度 5°C
湿度 70%
气压 1016 hPa
能見度: 16.1公里
阴天层高于4000英尺

METAR: KEHO 170825Z AUTO 06008KT 10SM OVC040 05/00 A2999 RMK AO2 T00510004

时间: 03:41 (08:41 UTC)


TAF: 丢失

超过4000个机场的气象观测和天气预报(METAR&TAF报告)。

可查询的气象台以黄色和红色小点在地图上表示。

将鼠标移到小点上方,可查看气象台名称。

然后点击查看天气观测和预报。

如需切换地图:点击带黑十字的绿色按钮放大地图;点击带横线的绿色按钮缩小地图;或者点击绿色箭头查看邻近地区的地图。


METAR-TAF: